Time;durP1;ratioP1;P1;durP2;ratioP2;P2;SDS_P1;SDS_P2;PMS_P1;PMS_P2;Temp;Humidity;BMP_temperature;BMP_pressure;BME280_temperature;BME280_humidity;BME280_pressure;Samples;Min_cycle;Max_cycle;Signal;HPM_P1;HPM_P2
2022/07/22 00:00:30;;;;;;;10.88;2.78;;;16.00;99.90;;;;;;5071297;28;19920;-69
2022/07/22 00:02:56;;;;;;;;;;;16.20;99.90;;;;;;5071851;28;20166;-69
2022/07/22 00:05:21;;;;;;;10.13;3.28;;;15.70;99.90;;;;;;5071395;28;19973;-70
2022/07/22 00:07:47;;;;;;;;;;;16.10;99.90;;;;;;5072139;28;20386;-70
2022/07/22 00:10:13;;;;;;;10.88;3.08;;;16.10;99.90;;;;;;5071638;28;19931;-71
2022/07/22 00:12:39;;;;;;;;;;;15.80;99.90;;;;;;5071796;28;20087;-69
2022/07/22 00:15:06;;;;;;;10.98;2.42;;;15.80;99.90;;;;;;5071497;28;19927;-69
2022/07/22 00:17:32;;;;;;;9.43;2.67;;;15.80;99.90;;;;;;5071392;28;20401;-70
2022/07/22 00:19:58;;;;;;;11.75;2.97;;;15.80;99.90;;;;;;5070967;28;20169;-70
2022/07/22 00:22:23;;;;;;;;;;;15.80;99.90;;;;;;5070919;28;20499;-71
2022/07/22 00:24:49;;;;;;;11.70;2.22;;;16.10;99.90;;;;;;5070142;28;19920;-70
2022/07/22 00:27:15;;;;;;;;;;;15.70;99.90;;;;;;5071809;28;20080;-70
2022/07/22 00:29:40;;;;;;;5.22;2.00;;;16.10;99.90;;;;;;5071406;28;19928;-71
2022/07/22 00:32:06;;;;;;;;;;;16.00;99.90;;;;;;5071666;28;20052;-70
2022/07/22 00:39:42;;;;;;;6.80;2.10;;;15.80;99.90;;;;;;5574369;23;20056;-71
2022/07/22 00:42:08;;;;;;;;;;;16.10;99.90;;;;;;5049273;28;20409;-72
2022/07/22 00:44:33;;;;;;;8.80;2.28;;;17.20;99.90;;;;;;5074705;28;19977;-70
2022/07/22 00:47:00;;;;;;;;;;;16.20;99.90;;;;;;5091764;28;20051;-70
2022/07/22 00:49:26;;;;;;;11.25;2.40;;;15.90;99.90;;;;;;5074314;28;19927;-70
2022/07/22 00:51:51;;;;;;;;;;;15.70;99.90;;;;;;5071884;28;20400;-69
2022/07/22 00:54:17;;;;;;;9.82;2.40;;;16.50;99.90;;;;;;5071011;28;19925;-70
2022/07/22 00:56:43;;;;;;;;;;;15.60;99.90;;;;;;5071257;28;20492;-69
2022/07/22 00:59:11;;;;;;;10.60;2.33;;;15.80;99.90;;;;;;5071068;28;19929;-70
2022/07/22 01:01:37;;;;;;;7.55;2.03;;;15.90;99.90;;;;;;5070797;28;20512;-71
2022/07/22 01:04:03;;;;;;;;;;;15.90;99.90;;;;;;5070539;28;20076;-70
2022/07/22 01:06:29;;;;;;;7.03;1.98;;;15.90;99.90;;;;;;5071061;28;19970;-70
2022/07/22 01:08:56;;;;;;;6.18;1.80;;;15.90;99.90;;;;;;5073359;28;20122;-70
2022/07/22 01:11:22;;;;;;;8.38;2.17;;;15.80;99.90;;;;;;5074223;28;20041;-71
2022/07/22 01:13:47;;;;;;;;;;;16.00;99.90;;;;;;5074853;28;20048;-70
2022/07/22 01:16:14;;;;;;;10.57;2.15;;;15.90;99.90;;;;;;5074694;28;20465;-71
2022/07/22 01:18:40;;;;;;;9.15;2.03;;;15.70;99.90;;;;;;5074561;28;20056;-71
2022/07/22 01:21:07;;;;;;;;;;;15.70;99.90;;;;;;5074848;28;20370;-71
2022/07/22 01:23:32;;;;;;;9.20;2.30;;;15.70;99.90;;;;;;5073401;28;19924;-70
2022/07/22 01:25:58;;;;;;;;;;;15.80;99.90;;;;;;5074536;28;20109;-70
2022/07/22 01:28:24;;;;;;;9.13;2.05;;;16.70;99.90;;;;;;5074212;28;19969;-71
2022/07/22 01:30:50;;;;;;;;;;;15.80;99.90;;;;;;5074613;28;20044;-75
2022/07/22 01:33:21;;;;;;;5.60;2.03;;;15.80;99.90;;;;;;5074111;28;19928;-71
2022/07/22 01:35:47;;;;;;;15.60;2.17;;;15.70;99.90;;;;;;5074219;28;20319;-72
2022/07/22 01:38:14;;;;;;;;;;;15.70;99.90;;;;;;5074638;28;20084;-75
2022/07/22 01:40:41;;;;;;;6.28;2.10;;;16.00;99.90;;;;;;5073497;28;19931;-70
2022/07/22 01:43:06;;;;;;;7.53;2.05;;;15.70;99.90;;;;;;5072886;28;20512;-73
2022/07/22 01:45:32;;;;;;;;;;;15.80;99.90;;;;;;5074322;28;20040;-73
2022/07/22 01:47:58;;;;;;;8.43;2.03;;;15.80;99.90;;;;;;5074070;28;20035;-72
2022/07/22 01:50:23;;;;;;;;;;;15.80;99.90;;;;;;5074283;28;20493;-72
2022/07/22 01:52:49;;;;;;;10.93;2.00;;;16.00;99.90;;;;;;5073836;28;19931;-73
2022/07/22 01:55:15;;;;;;;;;;;15.90;99.90;;;;;;5074004;28;20040;-71
2022/07/22 01:57:40;;;;;;;6.45;1.70;;;15.50;99.90;;;;;;5073645;28;19973;-71
2022/07/22 02:00:07;;;;;;;;;;;15.50;99.90;;;;;;5073516;28;20470;-74
2022/07/22 02:02:34;;;;;;;7.68;2.00;;;15.70;99.90;;;;;;5073867;28;19943;-73
2022/07/22 02:05:00;;;;;;;7.05;1.73;;;15.70;99.90;;;;;;5073773;28;20048;-71
2022/07/22 02:07:25;;;;;;;;;;;15.70;99.90;;;;;;5073995;28;20121;-72
2022/07/22 02:09:52;;;;;;;7.88;1.83;;;15.80;99.90;;;;;;5073271;28;19920;-71
2022/07/22 02:12:18;;;;;;;6.00;1.92;;;15.70;99.90;;;;;;5073352;28;20438;-72
2022/07/22 02:14:44;;;;;;;;;;;15.60;99.90;;;;;;5073917;28;20075;-71
2022/07/22 02:17:09;;;;;;;6.78;2.25;;;15.60;99.90;;;;;;5073544;28;19970;-72
2022/07/22 02:19:35;;;;;;;;;;;15.80;99.90;;;;;;5073840;28;20044;-71
2022/07/22 02:22:01;;;;;;;6.07;2.00;;;15.80;99.90;;;;;;5073221;28;20019;-72
2022/07/22 02:24:26;;;;;;;;;;;15.40;99.90;;;;;;5073308;28;20121;-70
2022/07/22 02:26:52;;;;;;;7.57;2.65;;;15.80;99.90;;;;;;5073041;28;19927;-72
2022/07/22 02:29:17;;;;;;;;;;;15.80;99.90;;;;;;5055887;28;20051;-73
2022/07/22 02:31:43;;;;;;;6.35;2.00;;;15.70;99.90;;;;;;5073227;28;19943;-71
2022/07/22 02:34:09;;;;;;;;;;;15.70;99.90;;;;;;5072074;28;20049;-69
2022/07/22 02:36:34;;;;;;;9.70;2.13;;;15.80;99.90;;;;;;5071747;28;20303;-71
2022/07/22 02:39:00;;;;;;;;;;;15.80;99.90;;;;;;5071869;28;20624;-71
2022/07/22 02:41:25;;;;;;;6.47;1.85;;;15.70;99.90;;;;;;5072635;28;19921;-71
2022/07/22 02:43:53;;;;;;;;;;;15.40;99.90;;;;;;5073448;28;20492;-72
2022/07/22 02:46:21;;;;;;;9.90;2.47;;;15.80;99.90;;;;;;5073035;28;19927;-70
2022/07/22 02:48:46;;;;;;;10.55;1.92;;;15.80;99.90;;;;;;5072882;28;20098;-69
2022/07/22 02:51:12;;;;;;;;;;;15.50;99.90;;;;;;5073098;28;20036;-71
2022/07/22 02:53:37;;;;;;;11.80;2.50;;;15.80;99.90;;;;;;5072366;28;19928;-71
2022/07/22 02:56:03;;;;;;;;;;;15.40;99.90;;;;;;5072892;28;20041;-70
2022/07/22 02:58:29;;;;;;;11.55;2.25;;;15.30;99.90;;;;;;5072660;28;19926;-70
2022/07/22 03:00:54;;;;;;;;;;;15.60;99.90;;;;;;5072986;28;20493;-70
2022/07/22 03:03:20;;;;;;;9.55;2.40;;;15.50;99.90;;;;;;5072569;28;19924;-73
2022/07/22 03:05:45;;;;;;;;;;;15.60;99.90;;;;;;5072880;28;20045;-71
2022/07/22 03:08:11;;;;;;;7.70;1.80;;;15.60;99.90;;;;;;5071945;28;19920;-70
2022/07/22 03:10:37;;;;;;;;;;;15.80;99.90;;;;;;5071271;28;20044;-70
2022/07/22 03:13:02;;;;;;;7.15;1.80;;;15.60;99.90;;;;;;5072053;28;19920;-70
2022/07/22 03:15:28;;;;;;;;;;;15.90;99.90;;;;;;5072357;28;20059;-71
2022/07/22 03:17:54;;;;;;;5.95;1.80;;;16.10;99.90;;;;;;5072277;28;19969;-71
2022/07/22 03:20:19;;;;;;;;;;;15.70;99.90;;;;;;5072470;28;20071;-73
2022/07/22 03:22:45;;;;;;;8.80;2.38;;;15.60;99.90;;;;;;5070602;28;19924;-70
2022/07/22 03:25:10;;;;;;;;;;;15.60;99.90;;;;;;5072472;28;20091;-71
2022/07/22 03:27:37;;;;;;;6.18;1.67;;;15.60;99.90;;;;;;5072019;28;19920;-69
2022/07/22 03:30:04;;;;;;;6.28;1.70;;;15.70;99.90;;;;;;5070577;28;20041;-70
2022/07/22 03:32:30;;;;;;;12.65;2.05;;;15.40;99.90;;;;;;5071821;28;20063;-69
2022/07/22 03:34:56;;;;;;;;;;;15.70;99.90;;;;;;5072043;28;20044;-71
2022/07/22 03:37:21;;;;;;;9.48;1.92;;;15.70;99.90;;;;;;5071739;28;19928;-70
2022/07/22 03:39:47;;;;;;;;;;;15.30;99.90;;;;;;5072371;28;20106;-74
2022/07/22 03:42:13;;;;;;;9.30;2.55;;;15.60;99.90;;;;;;5071791;28;20049;-71
2022/07/22 03:44:38;;;;;;;6.13;2.15;;;15.80;99.90;;;;;;5072023;28;20044;-72
2022/07/22 03:47:04;;;;;;;8.80;2.22;;;15.60;99.90;;;;;;5071915;28;20045;-71
2022/07/22 03:49:30;;;;;;;;;;;15.50;99.90;;;;;;5072250;28;20064;-71
2022/07/22 03:51:56;;;;;;;6.00;2.13;;;15.30;99.90;;;;;;5071916;28;19924;-69
2022/07/22 03:54:21;;;;;;;5.97;2.15;;;15.30;99.90;;;;;;5071796;28;20056;-71
2022/07/22 03:56:47;;;;;;;;;;;15.20;99.90;;;;;;5071993;28;20517;-70
2022/07/22 03:59:13;;;;;;;6.88;2.45;;;15.70;99.90;;;;;;5071808;28;20016;-70
2022/07/22 04:01:38;;;;;;;;;;;15.40;99.90;;;;;;5072155;28;20052;-70
2022/07/22 04:04:04;;;;;;;8.35;1.80;;;15.30;99.90;;;;;;5071347;28;19994;-70
2022/07/22 04:06:30;;;;;;;;;;;15.60;99.90;;;;;;5072013;28;20040;-70
2022/07/22 04:08:55;;;;;;;18.58;2.75;;;15.50;99.90;;;;;;5071487;28;19966;-72
2022/07/22 04:11:21;;;;;;;;;;;15.40;99.90;;;;;;5071943;28;20044;-71
2022/07/22 04:13:47;;;;;;;7.75;2.10;;;15.70;99.90;;;;;;5071433;28;19951;-70
2022/07/22 04:16:12;;;;;;;7.43;1.90;;;15.30;99.90;;;;;;5070537;28;20044;-71
2022/07/22 04:18:38;;;;;;;9.98;2.50;;;15.60;99.90;;;;;;5071636;28;20390;-70
2022/07/22 04:21:04;;;;;;;;;;;15.50;99.90;;;;;;5071828;28;20110;-70
2022/07/22 04:23:29;;;;;;;7.18;1.75;;;15.40;99.90;;;;;;5070446;28;20258;-71
2022/07/22 04:25:55;;;;;;;;;;;15.60;99.90;;;;;;5071636;28;20094;-72
2022/07/22 04:28:21;;;;;;;7.55;2.28;;;15.50;99.90;;;;;;5071535;28;19932;-71
2022/07/22 04:30:46;;;;;;;;;;;15.50;99.90;;;;;;5071812;28;20064;-71
2022/07/22 04:33:12;;;;;;;5.50;1.55;;;15.70;99.90;;;;;;5071184;28;19932;-71
2022/07/22 04:35:38;;;;;;;;;;;15.60;99.90;;;;;;5071664;28;20045;-71
2022/07/22 04:38:03;;;;;;;4.25;1.55;;;15.50;99.90;;;;;;5071203;28;19970;-71
2022/07/22 04:40:29;;;;;;;;;;;15.60;99.90;;;;;;5071731;28;20480;-72
2022/07/22 04:42:55;;;;;;;8.20;1.90;;;15.30;99.90;;;;;;5072458;28;19921;-71
2022/07/22 04:45:20;;;;;;;;;;;15.60;99.90;;;;;;5075686;28;20044;-71
2022/07/22 04:47:46;;;;;;;5.88;1.67;;;15.30;99.90;;;;;;5074976;28;20430;-71
2022/07/22 04:50:12;;;;;;;;;;;15.30;99.90;;;;;;5075488;28;20495;-71
2022/07/22 04:52:37;;;;;;;7.47;2.10;;;15.10;99.90;;;;;;5074811;28;19931;-71
2022/07/22 04:55:03;;;;;;;;;;;15.30;99.90;;;;;;5075266;28;20049;-71
2022/07/22 04:57:29;;;;;;;8.07;2.40;;;15.40;99.90;;;;;;5074794;28;20444;-72
2022/07/22 04:59:54;;;;;;;;;;;15.30;99.90;;;;;;5075315;28;20124;-72
2022/07/22 05:02:20;;;;;;;12.73;2.70;;;15.60;99.90;;;;;;5074474;28;19974;-71
2022/07/22 05:04:46;;;;;;;;;;;15.70;99.90;;;;;;5074141;28;20075;-72
2022/07/22 05:07:12;;;;;;;5.85;1.60;;;15.70;99.90;;;;;;5074745;28;19924;-72
2022/07/22 05:09:37;;;;;;;;;;;15.80;99.90;;;;;;5074905;28;20093;-72
2022/07/22 05:12:03;;;;;;;6.00;1.83;;;15.60;99.90;;;;;;5074801;28;19973;-71
2022/07/22 05:14:29;;;;;;;7.47;1.73;;;15.70;99.90;;;;;;5074531;28;20536;-71
2022/07/22 05:16:55;;;;;;;;;;;15.60;99.90;;;;;;5074815;28;20135;-71
2022/07/22 05:19:20;;;;;;;3.97;1.80;;;15.50;99.90;;;;;;5074391;28;20019;-71
2022/07/22 05:21:46;;;;;;;;;;;15.80;99.90;;;;;;5074827;28;20056;-70
2022/07/22 05:24:12;;;;;;;10.55;1.67;;;15.80;99.90;;;;;;5074308;28;19924;-71
2022/07/22 05:26:38;;;;;;;;;;;15.50;99.90;;;;;;5074837;28;20044;-71
2022/07/22 05:29:03;;;;;;;8.73;1.77;;;15.90;99.90;;;;;;5074479;28;20415;-71
2022/07/22 05:31:29;;;;;;;;;;;15.70;99.90;;;;;;5074472;28;20555;-71
2022/07/22 05:33:55;;;;;;;7.47;1.92;;;15.70;99.90;;;;;;5067650;28;19927;-71
2022/07/22 05:36:21;;;;;;;9.82;2.03;;;15.90;99.90;;;;;;5072129;28;20044;-71
2022/07/22 05:38:46;;;;;;;;;;;15.70;99.90;;;;;;5072524;28;20059;-71
2022/07/22 05:41:12;;;;;;;3.28;1.60;;;16.00;99.90;;;;;;5071821;28;19921;-72
2022/07/22 05:43:38;;;;;;;;;;;15.90;99.90;;;;;;5072892;28;20126;-71
2022/07/22 05:46:04;;;;;;;5.82;1.48;;;15.90;99.90;;;;;;5072113;28;19921;-71
2022/07/22 05:48:30;;;;;;;;;;;15.70;99.90;;;;;;5072154;28;20062;-71
2022/07/22 05:50:55;;;;;;;6.82;1.65;;;16.20;99.90;;;;;;5071700;28;20178;-72
2022/07/22 05:53:21;;;;;;;;;;;16.00;99.90;;;;;;5071766;28;20048;-72
2022/07/22 05:55:46;;;;;;;3.60;1.27;;;15.90;99.90;;;;;;5073878;28;19924;-70
2022/07/22 05:58:12;;;;;;;;;;;16.20;99.90;;;;;;5068088;28;20400;-70
2022/07/22 06:00:39;;;;;;;5.85;1.50;;;16.00;99.90;;;;;;5071720;28;19951;-70
2022/07/22 06:03:05;;;;;;;6.47;2.25;;;16.00;99.90;;;;;;5072208;28;20080;-71
2022/07/22 06:05:31;;;;;;;;;;;16.10;99.90;;;;;;5072200;28;20068;-72
2022/07/22 06:07:56;;;;;;;6.07;1.40;;;16.10;99.90;;;;;;5071655;28;19960;-71
2022/07/22 06:10:22;;;;;;;;;;;16.30;99.90;;;;;;5072695;28;20053;-70
2022/07/22 06:12:47;;;;;;;6.35;1.50;;;16.10;99.90;;;;;;5071718;28;19940;-72
2022/07/22 06:15:13;;;;;;;;;;;15.90;99.90;;;;;;5070935;28;20052;-72
2022/07/22 06:17:39;;;;;;;8.20;2.25;;;16.10;99.90;;;;;;5071404;28;20015;-71
2022/07/22 06:20:04;;;;;;;;;;;16.30;99.90;;;;;;5071830;28;20051;-71
2022/07/22 06:22:30;;;;;;;3.75;1.20;;;16.30;99.90;;;;;;5071405;28;20392;-70
2022/07/22 06:24:56;;;;;;;;;;;16.60;99.90;;;;;;5072269;28;20055;-70
2022/07/22 06:27:21;;;;;;;11.07;1.77;;;16.30;99.90;;;;;;5069794;28;19920;-71
2022/07/22 06:29:47;;;;;;;;;;;16.30;99.90;;;;;;5070820;28;20084;-71
2022/07/22 06:32:12;;;;;;;5.60;1.65;;;16.20;99.90;;;;;;5071497;28;20305;-71
2022/07/22 06:34:38;;;;;;;;;;;16.50;99.90;;;;;;5071107;28;20118;-71
2022/07/22 06:37:04;;;;;;;4.30;1.42;;;16.20;99.90;;;;;;5069627;28;19920;-71
2022/07/22 06:39:29;;;;;;;;;;;16.70;99.90;;;;;;5071696;28;20052;-71
2022/07/22 06:41:55;;;;;;;4.95;1.35;;;16.50;99.90;;;;;;5070683;28;19920;-72
2022/07/22 06:44:20;;;;;;;;;;;16.50;99.90;;;;;;5071283;28;20052;-71
2022/07/22 06:46:46;;;;;;;5.53;1.58;;;16.30;99.90;;;;;;5069896;28;19924;-70
2022/07/22 06:49:12;;;;;;;;;;;16.40;99.90;;;;;;5071061;28;20405;-71
2022/07/22 06:51:37;;;;;;;6.57;1.30;;;16.60;99.90;;;;;;5070093;28;19935;-71
2022/07/22 06:54:03;;;;;;;;;;;16.40;99.90;;;;;;5071449;28;20111;-70
2022/07/22 06:56:29;;;;;;;10.55;1.63;;;16.40;99.90;;;;;;5070517;28;19920;-70
2022/07/22 06:58:54;;;;;;;;;;;16.50;99.90;;;;;;5071959;28;20063;-71
2022/07/22 07:01:20;;;;;;;3.67;1.23;;;16.70;99.90;;;;;;5072461;28;20293;-71
2022/07/22 07:03:46;;;;;;;;;;;16.90;99.90;;;;;;5071496;28;20093;-72
2022/07/22 07:06:12;;;;;;;6.47;1.77;;;16.50;99.90;;;;;;5071625;28;19927;-73
2022/07/22 07:08:41;;;;;;;8.88;1.55;;;16.60;99.90;;;;;;5072257;28;20139;-73
2022/07/22 07:11:07;;;;;;;7.88;1.27;;;16.80;99.90;;;;;;5072348;28;20041;-73
2022/07/22 07:13:33;;;;;;;5.43;1.45;;;16.80;99.90;;;;;;5072107;28;20044;-72
2022/07/22 07:15:58;;;;;;;;;;;16.90;99.90;;;;;;5072649;28;20094;-73
2022/07/22 07:18:24;;;;;;;3.05;1.45;;;16.90;99.90;;;;;;5072184;28;19934;-73
2022/07/22 07:20:50;;;;;;;;;;;16.90;99.90;;;;;;5072384;28;20177;-73
2022/07/22 07:23:16;;;;;;;8.43;1.52;;;17.00;99.90;;;;;;5072019;28;19924;-73
2022/07/22 07:25:41;;;;;;;;;;;16.70;99.90;;;;;;5072671;28;20049;-72
2022/07/22 07:28:07;;;;;;;4.32;1.25;;;16.80;99.90;;;;;;5072093;28;19928;-77
2022/07/22 07:30:33;;;;;;;;;;;16.90;99.90;;;;;;5072869;28;20132;-70
2022/07/22 07:33:00;;;;;;;7.85;1.90;;;16.60;99.90;;;;;;5072100;28;19931;-70
2022/07/22 07:35:26;;;;;;;7.22;1.60;;;16.80;99.90;;;;;;5070734;28;20439;-71
2022/07/22 07:37:52;;;;;;;8.68;1.60;;;16.70;99.90;;;;;;5071807;28;20496;-69
2022/07/22 07:40:18;;;;;;;8.18;1.80;;;16.70;99.90;;;;;;5071581;28;20056;-71
2022/07/22 07:42:45;;;;;;;9.45;2.00;;;16.50;99.90;;;;;;5071426;28;20063;-71
2022/07/22 07:45:10;;;;;;;;;;;16.50;99.90;;;;;;5072313;28;20127;-71
2022/07/22 07:47:36;;;;;;;9.48;1.70;;;16.30;99.90;;;;;;5071678;28;20044;-70
2022/07/22 07:50:03;;;;;;;;;;;16.50;99.90;;;;;;5072098;28;20044;-71
2022/07/22 07:52:29;;;;;;;6.63;1.65;;;16.40;99.90;;;;;;5071636;28;20300;-71
2022/07/22 07:54:55;;;;;;;;;;;16.50;99.90;;;;;;5062507;28;20052;-70
2022/07/22 07:57:21;;;;;;;7.28;1.60;;;16.50;99.90;;;;;;5069876;28;19935;-70
2022/07/22 07:59:47;;;;;;;5.70;1.30;;;17.00;99.90;;;;;;5069900;28;20052;-66
2022/07/22 08:02:13;;;;;;;;;;;16.90;99.90;;;;;;5069847;28;20067;-66
2022/07/22 08:04:39;;;;;;;5.53;1.60;;;16.80;99.90;;;;;;5069910;28;19947;-72
2022/07/22 08:07:06;;;;;;;;;;;16.90;99.90;;;;;;5070389;28;20052;-67
2022/07/22 08:09:32;;;;;;;9.25;1.77;;;17.10;99.90;;;;;;5067340;28;19921;-67
2022/07/22 08:11:57;;;;;;;;;;;17.00;99.90;;;;;;5068737;28;20489;-66
2022/07/22 08:14:23;;;;;;;5.22;1.50;;;17.00;99.90;;;;;;5070297;28;19966;-65
2022/07/22 08:16:49;;;;;;;5.75;1.60;;;17.30;99.90;;;;;;5071921;28;20052;-67
2022/07/22 08:19:15;;;;;;;3.80;1.38;;;17.30;99.90;;;;;;5075634;28;20118;-69
2022/07/22 08:21:42;;;;;;;;;;;17.60;99.90;;;;;;5075771;28;20044;-69
2022/07/22 08:24:11;;;;;;;4.93;1.40;;;17.60;99.90;;;;;;5075574;28;19928;-71
2022/07/22 08:26:36;;;;;;;10.20;1.70;;;17.50;99.90;;;;;;5075348;28;20041;-70
2022/07/22 08:29:02;;;;;;;;;;;17.50;99.90;;;;;;5075732;28;20048;-71
2022/07/22 08:31:28;;;;;;;3.83;1.20;;;17.50;99.90;;;;;;5075237;28;19938;-71
2022/07/22 08:33:54;;;;;;;6.35;1.60;;;17.40;99.90;;;;;;5074890;28;20550;-67
2022/07/22 08:36:20;;;;;;;;;;;17.10;99.90;;;;;;5074570;28;20485;-69
2022/07/22 08:38:45;;;;;;;6.28;1.30;;;17.20;99.90;;;;;;5073280;28;19928;-66
2022/07/22 08:41:13;;;;;;;;;;;17.40;99.90;;;;;;5075243;28;20048;-66
2022/07/22 08:43:43;;;;;;;7.60;1.60;;;17.10;99.90;;;;;;5074698;28;19931;-64
2022/07/22 08:46:09;;;;;;;3.83;1.38;;;17.70;99.90;;;;;;5075032;28;20133;-69
2022/07/22 08:48:37;;;;;;;;;;;17.60;99.90;;;;;;5075202;28;20095;-69
2022/07/22 08:51:03;;;;;;;5.88;0.90;;;17.80;99.90;;;;;;5075028;28;19925;-66
2022/07/22 08:53:29;;;;;;;;;;;17.70;99.90;;;;;;5075435;28;20055;-61
2022/07/22 08:55:55;;;;;;;7.28;0.77;;;18.20;99.90;;;;;;5074682;28;20285;-62
2022/07/22 08:58:21;;;;;;;4.47;1.05;;;18.30;99.90;;;;;;5074850;28;20048;-62
2022/07/22 09:01:02;;;;;;;1.90;0.80;;;18.30;99.90;;;;;;5073193;28;20037;-62
2022/07/22 09:03:28;;;;;;;2.17;0.98;;;18.30;99.90;;;;;;5074997;28;20086;-69
2022/07/22 09:05:55;;;;;;;5.45;1.10;;;18.40;99.90;;;;;;5074895;28;20151;-62
2022/07/22 09:08:21;;;;;;;4.75;0.93;;;18.50;99.90;;;;;;5074733;28;20503;-61
2022/07/22 09:10:48;;;;;;;3.80;0.77;;;18.50;99.90;;;;;;5073392;28;20460;-67
2022/07/22 09:13:16;;;;;;;2.30;0.80;;;18.50;99.90;;;;;;5073365;28;20106;-64
2022/07/22 09:15:54;;;;;;;2.08;0.77;;;18.50;99.90;;;;;;5056737;28;20135;-66
2022/07/22 09:18:20;;;;;;;3.53;0.90;;;18.50;99.90;;;;;;5074428;28;20559;-65
2022/07/22 09:20:47;;;;;;;2.58;1.00;;;18.60;99.90;;;;;;5064146;28;20048;-67
2022/07/22 09:23:17;;;;;;;4.13;1.20;;;18.70;99.90;;;;;;5072546;28;20051;-67
2022/07/22 09:25:43;;;;;;;3.35;1.00;;;18.80;99.90;;;;;;5070261;28;20060;-67
2022/07/22 09:28:12;;;;;;;2.22;0.77;;;18.60;99.90;;;;;;5071811;28;20045;-59
2022/07/22 09:30:49;;;;;;;3.83;0.90;;;18.90;99.90;;;;;;5066167;28;20040;-69
2022/07/22 09:33:16;;;;;;;3.10;0.93;;;18.60;99.90;;;;;;5072843;28;20044;-66
2022/07/22 09:35:43;;;;;;;1.95;0.85;;;18.60;99.90;;;;;;5070862;28;20484;-64
2022/07/22 09:38:10;;;;;;;6.35;0.80;;;19.00;99.90;;;;;;5072072;28;20485;-76
2022/07/22 09:40:44;;;;;;;1.77;0.82;;;18.70;99.90;;;;;;5070264;28;20059;-72
2022/07/22 09:43:13;;;;;;;4.18;1.00;;;19.00;99.90;;;;;;5068993;28;20409;-71
2022/07/22 09:45:49;;;;;;;4.75;1.17;;;18.60;99.90;;;;;;5069078;28;20044;-71
2022/07/22 09:48:17;;;;;;;2.40;0.70;;;18.40;99.90;;;;;;5069114;28;20452;-69
2022/07/22 09:50:43;;;;;;;2.42;0.88;;;18.70;99.90;;;;;;5071775;28;20052;-74
2022/07/22 09:53:09;;;;;;;6.32;0.90;;;18.50;99.90;;;;;;5067564;28;20068;-73
2022/07/22 09:55:38;;;;;;;4.78;1.00;;;18.60;99.90;;;;;;5068778;28;20649;-71
2022/07/22 09:58:07;;;;;;;3.53;0.90;;;18.70;99.90;;;;;;5072336;28;20083;-66
2022/07/22 10:00:34;;;;;;;3.92;0.98;;;18.50;99.90;;;;;;5072306;28;20052;-72
2022/07/22 10:03:03;;;;;;;5.45;1.23;;;18.60;99.90;;;;;;5072645;28;20374;-69
2022/07/22 10:05:32;;;;;;;5.40;0.90;;;18.70;99.90;;;;;;5072361;28;20127;-71
2022/07/22 10:07:59;;;;;;;3.20;0.85;;;18.40;99.90;;;;;;5073339;28;20052;-71
2022/07/22 10:10:27;;;;;;;3.20;0.80;;;18.40;99.90;;;;;;5073521;28;20059;-69
2022/07/22 10:12:55;;;;;;;3.45;0.80;;;18.30;99.90;;;;;;5073632;28;20103;-71
2022/07/22 10:15:22;;;;;;;3.30;0.80;;;18.40;99.90;;;;;;5073628;28;20044;-70
2022/07/22 10:17:50;;;;;;;2.63;0.88;;;18.50;99.90;;;;;;5073355;28;20063;-70
2022/07/22 10:20:18;;;;;;;2.67;0.90;;;18.50;99.90;;;;;;5073391;28;20094;-70
2022/07/22 10:22:58;;;;;;;8.48;1.10;;;18.60;99.90;;;;;;5072898;28;20118;-70
2022/07/22 10:25:26;;;;;;;7.15;0.90;;;18.80;99.90;;;;;;5073492;28;20049;-71
2022/07/22 10:27:59;;;;;;;1.15;0.60;;;18.60;99.90;;;;;;5071956;28;20068;-70
2022/07/22 10:30:27;;;;;;;4.65;1.23;;;18.80;99.90;;;;;;5071902;28;20097;-70
2022/07/22 10:33:14;;;;;;;4.00;1.00;;;18.80;99.90;;;;;;5073023;28;20534;-70
2022/07/22 10:35:54;;;;;;;3.08;0.70;;;19.10;99.90;;;;;;5072833;28;20392;-71
2022/07/22 10:38:21;;;;;;;3.22;0.70;;;19.10;99.90;;;;;;5072936;28;20354;-63
2022/07/22 10:40:53;;;;;;;5.20;0.80;;;19.30;99.90;;;;;;5071364;28;20053;-68
2022/07/22 10:43:30;;;;;;;2.25;0.75;;;19.10;99.90;;;;;;5061356;28;20636;-68
2022/07/22 10:46:06;;;;;;;3.42;0.65;;;19.40;99.90;;;;;;5053060;28;20401;-68
2022/07/22 10:48:37;;;;;;;2.83;0.70;;;19.50;99.90;;;;;;5052636;28;20464;-68
2022/07/22 10:51:06;;;;;;;1.33;0.98;;;19.90;99.90;;;;;;5051330;28;20486;-65
2022/07/22 10:53:44;;;;;;;1.38;0.73;;;19.60;99.90;;;;;;5051277;28;20045;-66
2022/07/22 10:56:16;;;;;;;2.40;0.57;;;19.40;99.90;;;;;;5063490;28;20529;-68
2022/07/22 10:58:45;;;;;;;2.83;0.50;;;19.50;99.90;;;;;;5070900;28;20222;-65
2022/07/22 11:01:14;;;;;;;3.97;0.80;;;20.10;99.90;;;;;;5070763;28;20048;-66
2022/07/22 11:03:42;;;;;;;4.65;1.13;;;19.80;99.90;;;;;;5072586;28;20477;-62
2022/07/22 11:06:15;;;;;;;2.40;0.70;;;19.80;99.90;;;;;;5071995;28;20520;-69
2022/07/22 11:08:42;;;;;;;2.67;1.00;;;19.70;99.90;;;;;;5072038;28;20053;-66
2022/07/22 11:11:08;;;;;;;2.15;0.73;;;19.60;99.90;;;;;;5072428;28;20048;-65
2022/07/22 11:13:34;;;;;;;3.90;1.30;;;19.50;99.90;;;;;;5071554;28;20036;-66
2022/07/22 11:16:23;;;;;;;3.17;0.90;;;19.40;99.90;;;;;;5072434;28;20091;-72
2022/07/22 11:18:56;;;;;;;1.92;0.80;;;19.20;99.90;;;;;;5071592;28;20076;-65
2022/07/22 11:21:28;;;;;;;1.73;0.70;;;19.30;99.90;;;;;;5072034;28;20131;-66
2022/07/22 11:23:55;;;;;;;4.47;0.90;;;19.40;99.90;;;;;;5070764;28;20044;-65
2022/07/22 11:26:50;;;;;;;2.92;0.95;;;19.30;99.90;;;;;;5071958;28;20063;-66
2022/07/22 11:29:27;;;;;;;4.10;1.00;;;19.20;99.90;;;;;;5071342;28;20052;-72
2022/07/22 11:31:55;;;;;;;5.47;1.30;;;19.10;99.90;;;;;;5070938;28;20071;-65
2022/07/22 11:34:22;;;;;;;4.60;1.08;;;19.60;99.90;;;;;;5071606;28;20055;-68
2022/07/22 11:36:48;;;;;;;10.25;2.25;;;19.80;99.90;;;;;;5071641;28;20052;-68
2022/07/22 11:39:20;;;;;;;6.95;1.42;;;19.60;99.90;;;;;;5071770;28;20121;-66
2022/07/22 11:41:46;;;;;;;4.68;1.25;;;19.50;99.90;;;;;;5071756;28;20052;-67
2022/07/22 11:44:12;;;;;;;4.07;1.85;;;19.60;99.90;;;;;;5072094;28;20466;-66
2022/07/22 11:46:42;;;;;;;21.33;1.60;;;20.00;99.90;;;;;;5071960;28;20127;-65
2022/07/22 11:49:09;;;;;;;5.60;1.25;;;19.90;99.90;;;;;;5071600;28;20044;-66
2022/07/22 11:51:37;;;;;;;5.30;1.35;;;19.60;99.90;;;;;;5071512;28;20393;-66
2022/07/22 11:54:04;;;;;;;3.45;1.20;;;19.50;99.90;;;;;;5070517;28;20045;-66
2022/07/22 11:56:31;;;;;;;3.25;1.02;;;19.40;99.90;;;;;;5071611;28;20127;-66
2022/07/22 11:58:57;;;;;;;3.67;1.17;;;19.10;99.90;;;;;;5070578;28;20555;-67
2022/07/22 12:01:27;;;;;;;2.97;0.85;;;19.30;99.90;;;;;;5071642;28;20089;-66
2022/07/22 12:03:59;;;;;;;4.03;0.90;;;19.20;99.90;;;;;;5071423;28;20132;-67
2022/07/22 12:06:26;;;;;;;2.47;1.25;;;19.60;99.90;;;;;;5071622;28;20123;-69
2022/07/22 12:08:55;;;;;;;4.40;1.13;;;19.40;99.90;;;;;;5071503;28;20127;-68
2022/07/22 12:11:23;;;;;;;5.57;0.90;;;19.30;99.90;;;;;;5071552;28;20045;-69
2022/07/22 12:13:51;;;;;;;2.45;1.10;;;19.60;99.90;;;;;;5071471;28;20555;-68
2022/07/22 12:16:27;;;;;;;3.63;0.88;;;19.10;99.90;;;;;;5086969;28;20052;-68
2022/07/22 12:19:01;;;;;;;7.72;1.50;;;19.30;99.90;;;;;;5071290;28;20057;-68
2022/07/22 12:21:29;;;;;;;3.35;0.90;;;19.30;99.90;;;;;;5070135;28;20046;-69
2022/07/22 12:24:01;;;;;;;2.28;0.80;;;19.60;99.90;;;;;;5071618;28;20044;-68
2022/07/22 12:26:47;;;;;;;4.63;0.90;;;19.60;99.90;;;;;;5071547;28;20494;-69
2022/07/22 12:29:18;;;;;;;3.72;1.15;;;19.50;99.90;;;;;;5071313;28;20490;-74
2022/07/22 12:31:54;;;;;;;5.10;1.00;;;19.40;99.90;;;;;;5070991;28;20083;-70
2022/07/22 12:34:32;;;;;;;1.88;0.90;;;19.50;99.90;;;;;;5071576;28;20041;-72
2022/07/22 12:36:59;;;;;;;5.53;1.00;;;19.50;99.90;;;;;;5071466;28;20512;-72
2022/07/22 12:39:25;;;;;;;2.78;0.95;;;19.40;99.90;;;;;;5071365;28;20094;-72
2022/07/22 12:41:53;;;;;;;3.28;0.90;;;19.50;99.90;;;;;;5071351;28;20135;-73
2022/07/22 12:44:24;;;;;;;3.03;1.05;;;19.20;99.90;;;;;;5071492;28;20060;-72
2022/07/22 12:46:57;;;;;;;5.70;1.10;;;19.30;99.90;;;;;;5070159;28;20489;-74
2022/07/22 12:49:25;;;;;;;4.03;1.00;;;19.40;99.90;;;;;;5070448;28;20040;-73
2022/07/22 12:52:11;;;;;;;5.97;1.00;;;19.40;99.90;;;;;;5071374;28;20052;-73
2022/07/22 12:54:38;;;;;;;;;;;19.40;99.90;;;;;;5070672;28;20107;-73
2022/07/22 12:57:05;;;;;;;5.85;0.90;;;19.20;99.90;;;;;;5071283;28;20401;-73
2022/07/22 12:59:31;;;;;;;3.40;1.38;;;19.60;99.90;;;;;;5068558;28;20389;-73
2022/07/22 13:01:56;;;;;;;2.67;0.88;;;19.60;99.90;;;;;;5070799;28;20055;-73
2022/07/22 13:04:22;;;;;;;6.25;0.93;;;19.10;99.90;;;;;;5072530;28;20041;-74
2022/07/22 13:06:48;;;;;;;5.80;0.90;;;19.50;99.90;;;;;;5074812;28;20425;-73
2022/07/22 13:09:14;;;;;;;2.90;0.90;;;19.50;99.90;;;;;;5074754;28;20045;-73
2022/07/22 13:11:43;;;;;;;3.25;0.82;;;19.30;99.90;;;;;;5073523;28;20052;-74
2022/07/22 13:14:09;;;;;;;4.53;1.05;;;19.50;99.90;;;;;;5074980;28;20052;-73